Time;durP1;ratioP1;P1;durP2;ratioP2;P2;SDS_P1;SDS_P2;PMS_P1;PMS_P2;Temp;Humidity;BMP_temperature;BMP_pressure;BME280_temperature;BME280_humidity;BME280_pressure;Samples;Min_cycle;Max_cycle;Signal;HPM_P1;HPM_P2
2021/07/14 00:02:07;;;;;;;19.98;8.07;;;18.40;99.90;;;;;;5078747;28;20039;-73
2021/07/14 00:04:35;;;;;;;18.67;8.27;;;18.40;99.90;;;;;;5080888;28;20097;-72
2021/07/14 00:07:02;;;;;;;26.85;9.38;;;18.50;99.90;;;;;;5063684;28;20062;-72
2021/07/14 00:09:28;;;;;;;19.00;9.32;;;18.40;99.90;;;;;;5065235;28;20039;-72
2021/07/14 00:11:57;;;;;;;20.70;8.88;;;18.40;99.90;;;;;;5081962;28;20040;-72
2021/07/14 00:14:35;;;;;;;21.90;8.25;;;18.40;99.90;;;;;;5061198;28;20093;-72
2021/07/14 00:22:28;;;;;;;18.90;8.43;;;18.40;99.90;;;;;;5079480;28;20051;-72
2021/07/14 00:24:54;;;;;;;19.58;9.27;;;18.40;99.90;;;;;;5081746;28;20115;-72
2021/07/14 00:27:20;;;;;;;22.05;8.13;;;18.40;99.90;;;;;;5083363;28;20107;-72
2021/07/14 00:29:52;;;;;;;18.27;8.43;;;18.40;99.90;;;;;;5079403;28;20032;-72
2021/07/14 00:32:18;;;;;;;15.00;6.95;;;18.40;99.90;;;;;;5064104;28;20028;-74
2021/07/14 00:34:43;;;;;;;13.02;6.97;;;18.40;99.90;;;;;;5079132;28;20697;-72
2021/07/14 00:37:10;;;;;;;16.98;7.43;;;18.40;99.90;;;;;;5075404;28;20044;-72
2021/07/14 00:39:36;;;;;;;24.92;8.80;;;18.40;99.90;;;;;;5074574;28;20047;-72
2021/07/14 00:42:03;;;;;;;22.23;8.73;;;18.40;99.90;;;;;;5063501;28;20394;-73
2021/07/14 00:44:29;;;;;;;21.83;7.72;;;18.40;99.90;;;;;;5084377;28;20031;-73
2021/07/14 00:46:55;;;;;;;15.13;6.85;;;18.50;99.90;;;;;;5080205;28;20476;-72
2021/07/14 00:49:21;;;;;;;19.98;8.27;;;18.40;99.90;;;;;;5063270;28;20032;-74
2021/07/14 00:51:46;;;;;;;17.90;8.13;;;18.40;99.90;;;;;;5062643;28;20128;-72
2021/07/14 00:54:13;;;;;;;18.63;8.23;;;18.40;99.90;;;;;;5082832;28;20032;-72
2021/07/14 00:56:39;;;;;;;20.65;8.32;;;18.40;99.90;;;;;;5056311;28;20032;-72
2021/07/14 00:59:06;;;;;;;18.88;7.70;;;18.40;99.90;;;;;;5060862;28;20029;-72
2021/07/14 01:01:31;;;;;;;19.63;7.13;;;18.40;99.90;;;;;;5062851;28;20087;-73
2021/07/14 01:04:17;;;;;;;19.33;6.93;;;18.40;99.90;;;;;;5078286;28;20826;-72
2021/07/14 01:07:07;;;;;;;18.52;7.82;;;18.50;99.90;;;;;;5060125;28;20033;-72
2021/07/14 01:09:47;;;;;;;15.52;6.13;;;18.40;99.90;;;;;;5057188;28;20102;-72
2021/07/14 01:12:31;;;;;;;18.05;6.75;;;18.40;99.90;;;;;;5075410;28;20056;-72
2021/07/14 01:15:06;;;;;;;18.90;6.47;;;18.40;99.90;;;;;;5061061;28;20396;-73
2021/07/14 01:17:37;;;;;;;17.55;6.60;;;18.40;99.90;;;;;;5081509;28;20040;-72
2021/07/14 01:20:14;;;;;;;15.82;6.05;;;18.40;99.90;;;;;;5059307;28;20043;-72
2021/07/14 01:22:56;;;;;;;21.00;7.13;;;18.40;99.90;;;;;;5074953;28;20185;-73
2021/07/14 01:25:50;;;;;;;19.65;6.65;;;18.40;99.90;;;;;;5058091;28;20024;-72
2021/07/14 01:28:16;;;;;;;14.50;5.90;;;18.40;99.90;;;;;;5057440;28;20052;-72
2021/07/14 01:30:43;;;;;;;14.82;6.38;;;18.30;99.90;;;;;;5081013;28;20669;-72
2021/07/14 01:33:10;;;;;;;18.20;6.88;;;18.30;99.90;;;;;;5077790;28;20443;-72
2021/07/14 01:35:41;;;;;;;16.98;6.38;;;18.30;99.90;;;;;;5059781;28;20028;-72
2021/07/14 01:38:10;;;;;;;15.70;6.30;;;18.30;99.90;;;;;;5073308;28;20032;-73
2021/07/14 01:40:37;;;;;;;14.73;6.15;;;18.30;99.90;;;;;;5074254;28;20032;-72
2021/07/14 01:43:04;;;;;;;17.25;6.45;;;18.30;99.90;;;;;;5077725;28;20573;-73
2021/07/14 01:45:33;;;;;;;22.17;7.18;;;18.30;99.90;;;;;;5082316;28;20048;-72
2021/07/14 01:48:01;;;;;;;18.38;6.82;;;18.30;99.90;;;;;;5080424;28;20041;-74
2021/07/14 01:50:32;;;;;;;17.38;6.68;;;18.30;99.90;;;;;;5060530;28;20043;-72
2021/07/14 01:52:59;;;;;;;18.40;7.40;;;18.30;99.90;;;;;;5080950;28;20489;-72
2021/07/14 01:55:25;;;;;;;13.93;6.32;;;18.30;99.90;;;;;;5060467;28;20053;-72
2021/07/14 01:57:54;;;;;;;16.92;7.03;;;18.30;99.90;;;;;;5061436;28;20036;-72
2021/07/14 02:00:20;;;;;;;19.23;7.18;;;18.30;99.90;;;;;;5080707;28;20496;-72
2021/07/14 02:03:01;;;;;;;16.63;7.28;;;18.30;99.90;;;;;;5063483;28;20060;-72
2021/07/14 02:05:28;;;;;;;19.52;7.78;;;18.30;99.90;;;;;;5080886;28;20031;-72
2021/07/14 02:07:56;;;;;;;17.30;6.88;;;18.30;99.90;;;;;;5063055;28;20582;-72
2021/07/14 02:10:22;;;;;;;16.65;6.50;;;18.40;99.90;;;;;;5078819;28;20036;-72
2021/07/14 02:12:50;;;;;;;26.65;7.57;;;18.40;99.90;;;;;;5077699;28;20566;-71
2021/07/14 02:15:16;;;;;;;20.33;6.90;;;18.40;99.90;;;;;;5059850;28;20488;-72
2021/07/14 02:18:06;;;;;;;17.52;7.05;;;18.40;99.90;;;;;;5080646;28;20211;-72
2021/07/14 02:20:31;;;;;;;16.00;6.97;;;18.40;99.90;;;;;;5065536;28;20037;-72
2021/07/14 02:22:57;;;;;;;20.27;6.60;;;18.40;99.90;;;;;;5076835;28;20043;-72
2021/07/14 02:25:23;;;;;;;21.17;7.80;;;18.40;99.90;;;;;;5081286;28;20068;-72
2021/07/14 02:27:49;;;;;;;25.08;7.05;;;18.30;99.90;;;;;;5074917;28;20043;-72
2021/07/14 02:30:21;;;;;;;24.80;7.55;;;18.30;99.90;;;;;;5061416;28;20047;-73
2021/07/14 02:32:50;;;;;;;24.92;7.32;;;18.30;99.90;;;;;;5077461;28;20526;-72
2021/07/14 02:35:17;;;;;;;19.02;7.28;;;18.40;99.90;;;;;;5060067;28;20098;-73
2021/07/14 02:37:52;;;;;;;19.40;7.80;;;18.40;99.90;;;;;;5062040;28;20081;-72
2021/07/14 02:40:42;;;;;;;20.23;7.28;;;18.40;99.90;;;;;;5055792;28;20134;-73
2021/07/14 02:43:09;;;;;;;19.17;7.47;;;18.40;99.90;;;;;;5036380;28;20028;-72
2021/07/14 02:45:45;;;;;;;13.30;7.15;;;18.40;99.90;;;;;;5057893;28;20380;-72
2021/07/14 02:48:11;;;;;;;15.88;7.40;;;18.40;99.90;;;;;;5074068;28;20060;-72
2021/07/14 02:50:37;;;;;;;18.52;6.65;;;18.40;99.90;;;;;;5080675;28;20037;-72
2021/07/14 02:53:26;;;;;;;21.15;8.18;;;18.40;99.90;;;;;;5067812;28;20522;-72
2021/07/14 02:55:58;;;;;;;16.05;7.15;;;18.30;99.90;;;;;;5082559;28;20539;-72
2021/07/14 02:58:28;;;;;;;21.73;7.57;;;18.40;99.90;;;;;;5081764;28;20114;-72
2021/07/14 03:00:55;;;;;;;14.63;5.13;;;18.40;99.90;;;;;;5065816;28;20041;-72
2021/07/14 03:03:24;;;;;;;17.05;8.07;;;18.40;99.90;;;;;;5083121;28;20034;-72
2021/07/14 03:05:58;;;;;;;22.25;7.90;;;18.40;99.90;;;;;;5064630;28;20550;-72
2021/07/14 03:08:28;;;;;;;16.70;7.65;;;18.40;99.90;;;;;;5082582;28;20131;-72
2021/07/14 03:10:55;;;;;;;19.05;7.80;;;18.40;99.90;;;;;;5076837;28;20031;-72
2021/07/14 03:13:25;;;;;;;20.50;7.45;;;18.40;99.90;;;;;;5086119;28;20028;-71
2021/07/14 03:15:52;;;;;;;22.80;6.90;;;18.30;99.90;;;;;;5082985;28;20039;-72
2021/07/14 03:18:21;;;;;;;20.63;7.68;;;18.30;99.90;;;;;;5065223;28;20077;-71
2021/07/14 03:20:47;;;;;;;23.35;7.60;;;18.30;99.90;;;;;;5082291;28;20067;-72
2021/07/14 03:23:15;;;;;;;16.23;7.10;;;18.30;99.90;;;;;;5079824;28;20056;-71
2021/07/14 03:25:42;;;;;;;13.35;6.97;;;18.30;99.90;;;;;;5081569;28;20058;-74
2021/07/14 03:28:08;;;;;;;24.67;7.43;;;18.20;99.90;;;;;;5066510;28;20028;-72
2021/07/14 03:30:35;;;;;;;20.27;7.35;;;18.20;99.90;;;;;;5080974;28;20410;-72
2021/07/14 03:33:01;;;;;;;19.90;7.22;;;18.20;99.90;;;;;;5084349;28;20514;-72
2021/07/14 03:35:26;;;;;;;17.95;7.55;;;18.20;99.90;;;;;;5066504;28;20044;-72
2021/07/14 03:37:53;;;;;;;17.83;7.45;;;18.20;99.90;;;;;;5084265;28;20035;-72
2021/07/14 03:40:19;;;;;;;15.95;6.82;;;18.20;99.90;;;;;;5080473;28;20043;-72
2021/07/14 03:42:49;;;;;;;16.17;5.90;;;18.20;99.90;;;;;;5064232;28;20040;-73
2021/07/14 03:45:15;;;;;;;13.48;5.75;;;18.20;99.90;;;;;;5082653;28;20024;-72
2021/07/14 03:47:41;;;;;;;12.20;6.45;;;18.20;99.90;;;;;;5084831;28;20036;-72
2021/07/14 03:50:08;;;;;;;15.65;6.18;;;18.20;99.90;;;;;;5079876;28;20162;-72
2021/07/14 03:52:34;;;;;;;17.40;5.60;;;18.10;99.90;;;;;;5062911;28;20028;-72
2021/07/14 03:55:01;;;;;;;11.70;5.28;;;18.10;99.90;;;;;;5083647;28;20024;-72
2021/07/14 03:57:29;;;;;;;15.68;5.38;;;18.10;99.90;;;;;;5085325;28;20025;-71
2021/07/14 03:59:55;;;;;;;10.60;4.88;;;18.10;99.90;;;;;;5064817;28;20093;-72
2021/07/14 04:02:22;;;;;;;8.95;4.45;;;18.10;99.90;;;;;;5080525;28;20028;-72
2021/07/14 04:04:49;;;;;;;11.48;4.85;;;18.10;99.90;;;;;;5066511;28;20060;-72
2021/07/14 04:07:17;;;;;;;9.48;4.13;;;18.10;99.90;;;;;;5081912;28;20123;-71
2021/07/14 04:09:45;;;;;;;8.23;4.63;;;18.20;99.90;;;;;;5063888;28;20098;-71
2021/07/14 04:12:11;;;;;;;12.48;4.10;;;18.10;99.90;;;;;;5079756;28;20039;-72
2021/07/14 04:14:37;;;;;;;10.38;3.70;;;18.20;99.90;;;;;;5062548;28;20119;-72
2021/07/14 04:17:03;;;;;;;7.72;3.85;;;18.20;99.90;;;;;;5069008;28;20127;-72
2021/07/14 04:19:28;;;;;;;7.30;3.83;;;18.20;99.90;;;;;;5077461;28;20106;-72
2021/07/14 04:21:54;;;;;;;8.35;3.97;;;18.20;99.90;;;;;;5065329;28;20052;-73
2021/07/14 04:24:20;;;;;;;6.07;3.40;;;18.20;99.90;;;;;;5078663;28;20125;-71
2021/07/14 04:26:46;;;;;;;8.15;3.80;;;18.20;99.90;;;;;;5079021;28;20036;-72
2021/07/14 04:29:12;;;;;;;8.02;3.80;;;18.30;99.90;;;;;;5081604;28;20032;-72
2021/07/14 04:31:38;;;;;;;9.10;3.67;;;18.30;99.90;;;;;;5061869;28;20123;-72
2021/07/14 04:34:04;;;;;;;8.02;3.45;;;18.30;99.90;;;;;;5082292;28;20036;-72
2021/07/14 04:36:30;;;;;;;8.15;3.60;;;18.30;99.90;;;;;;5054937;28;20085;-72
2021/07/14 04:38:57;;;;;;;11.00;3.92;;;18.30;99.90;;;;;;5075093;28;20143;-72
2021/07/14 04:41:23;;;;;;;8.43;3.42;;;18.30;99.90;;;;;;5055345;28;20049;-72
2021/07/14 04:43:48;;;;;;;6.72;3.67;;;18.30;99.90;;;;;;5073852;28;20575;-72
2021/07/14 04:46:14;;;;;;;7.10;3.45;;;18.30;99.90;;;;;;5076319;28;20143;-72
2021/07/14 04:48:39;;;;;;;6.75;3.40;;;18.30;99.90;;;;;;5070023;28;20094;-72
2021/07/14 04:51:05;;;;;;;6.38;3.53;;;18.40;99.90;;;;;;5058882;28;20032;-72
2021/07/14 04:53:31;;;;;;;8.00;4.18;;;18.40;99.90;;;;;;5054124;28;20136;-71
2021/07/14 04:55:57;;;;;;;7.22;3.40;;;18.40;99.90;;;;;;5054853;28;20094;-71
2021/07/14 04:58:23;;;;;;;9.05;4.32;;;18.40;99.90;;;;;;5054916;28;20028;-72
2021/07/14 05:00:48;;;;;;;7.68;3.40;;;18.40;99.90;;;;;;5070010;28;20091;-72
2021/07/14 05:03:14;;;;;;;6.85;4.10;;;18.40;99.90;;;;;;5079202;28;20381;-72
2021/07/14 05:05:39;;;;;;;5.65;3.20;;;18.40;99.90;;;;;;5069131;28;20124;-72
2021/07/14 05:08:05;;;;;;;5.78;3.67;;;18.50;99.90;;;;;;5081370;28;20290;-72
2021/07/14 05:10:31;;;;;;;9.05;3.55;;;18.50;99.90;;;;;;5079012;28;20056;-72
2021/07/14 05:13:00;;;;;;;8.63;3.42;;;18.50;99.90;;;;;;5050850;28;20035;-72
2021/07/14 05:15:26;;;;;;;7.45;4.07;;;18.50;99.90;;;;;;5054935;28;20039;-72
2021/07/14 05:17:51;;;;;;;6.93;3.22;;;18.50;99.90;;;;;;5070381;28;20033;-72
2021/07/14 05:20:17;;;;;;;7.70;3.65;;;18.50;99.90;;;;;;5056857;28;20036;-72
2021/07/14 05:22:44;;;;;;;9.15;3.45;;;18.50;99.90;;;;;;5056627;28;20039;-72
2021/07/14 05:25:11;;;;;;;8.15;3.40;;;18.50;99.90;;;;;;5053715;28;20025;-72
2021/07/14 05:27:36;;;;;;;6.40;3.28;;;18.60;99.90;;;;;;5076137;28;20036;-72
2021/07/14 05:30:05;;;;;;;5.60;3.08;;;18.60;99.90;;;;;;5072818;28;20638;-72
2021/07/14 05:32:31;;;;;;;9.18;3.50;;;18.60;99.90;;;;;;5057029;28;20024;-72
2021/07/14 05:34:57;;;;;;;8.60;3.10;;;18.60;99.90;;;;;;5059054;28;20055;-72
2021/07/14 05:37:22;;;;;;;8.55;4.20;;;18.60;99.90;;;;;;5074745;28;20032;-72
2021/07/14 05:39:48;;;;;;;5.35;3.10;;;18.60;99.90;;;;;;5071421;28;20624;-72
2021/07/14 05:42:15;;;;;;;5.65;2.97;;;18.70;99.90;;;;;;5071766;28;20071;-72
2021/07/14 05:44:40;;;;;;;7.03;2.92;;;18.70;99.90;;;;;;5071627;28;20036;-72
2021/07/14 05:47:07;;;;;;;8.07;3.17;;;18.70;99.90;;;;;;5072227;28;20039;-72
2021/07/14 05:49:32;;;;;;;5.43;2.83;;;18.70;99.90;;;;;;5070262;28;20033;-72
2021/07/14 05:51:58;;;;;;;8.90;3.70;;;18.70;99.90;;;;;;5073646;28;20025;-72
2021/07/14 05:54:23;;;;;;;9.40;4.72;;;18.70;99.90;;;;;;5057980;28;20115;-72
2021/07/14 05:56:49;;;;;;;8.60;4.47;;;18.70;99.90;;;;;;5071874;28;20028;-72
2021/07/14 05:59:14;;;;;;;9.63;5.63;;;18.70;99.90;;;;;;5058146;28;20678;-72
2021/07/14 06:01:40;;;;;;;13.68;5.65;;;18.80;99.90;;;;;;5057103;28;20040;-72
2021/07/14 06:04:06;;;;;;;11.88;5.57;;;18.70;99.90;;;;;;5069988;28;20190;-72
2021/07/14 06:06:32;;;;;;;11.32;5.75;;;18.70;99.90;;;;;;5072110;28;20449;-72
2021/07/14 06:08:58;;;;;;;12.05;5.95;;;18.70;99.90;;;;;;5057728;28;20047;-72
2021/07/14 06:11:24;;;;;;;11.55;5.50;;;18.60;99.90;;;;;;5069274;28;20036;-71
2021/07/14 06:13:50;;;;;;;12.07;5.72;;;18.60;99.90;;;;;;5054626;28;20392;-72
2021/07/14 06:16:16;;;;;;;11.45;5.35;;;18.60;99.90;;;;;;5073150;28;20445;-72
2021/07/14 06:18:41;;;;;;;9.73;5.07;;;18.60;99.90;;;;;;5072169;28;20063;-72
2021/07/14 06:21:07;;;;;;;11.10;5.93;;;18.60;99.90;;;;;;5060655;28;20618;-73
2021/07/14 06:23:34;;;;;;;9.77;5.07;;;18.60;99.90;;;;;;5058657;28;20036;-72
2021/07/14 06:25:59;;;;;;;12.93;5.55;;;18.60;99.90;;;;;;5051988;28;20487;-72
2021/07/14 06:28:25;;;;;;;11.90;5.43;;;18.60;99.90;;;;;;5057832;28;20040;-72
2021/07/14 06:30:51;;;;;;;11.00;5.30;;;18.50;99.90;;;;;;5059616;28;20065;-72
2021/07/14 06:33:17;;;;;;;14.77;5.82;;;18.50;99.90;;;;;;5060137;28;20063;-72
2021/07/14 06:35:43;;;;;;;9.07;4.95;;;18.50;99.90;;;;;;5071937;28;20099;-72
2021/07/14 06:38:09;;;;;;;10.63;5.57;;;18.50;99.90;;;;;;5060747;28;20113;-71
2021/07/14 06:40:37;;;;;;;15.90;6.95;;;18.50;99.90;;;;;;5068647;28;20631;-72
2021/07/14 06:43:08;;;;;;;15.05;7.10;;;18.50;99.90;;;;;;5069623;28;20050;-71
2021/07/14 06:45:33;;;;;;;16.05;7.45;;;18.40;99.90;;;;;;5061229;28;20059;-72
2021/07/14 06:47:59;;;;;;;14.85;6.93;;;18.50;99.90;;;;;;5075639;28;20052;-71
2021/07/14 06:50:25;;;;;;;14.93;6.85;;;18.50;99.90;;;;;;5055175;28;20037;-72
2021/07/14 06:52:51;;;;;;;14.63;6.78;;;18.40;99.90;;;;;;5074262;28;20100;-71
2021/07/14 06:55:16;;;;;;;16.27;7.45;;;18.40;99.90;;;;;;5056428;28;20067;-71
2021/07/14 06:57:44;;;;;;;20.08;7.13;;;18.40;99.90;;;;;;5070651;28;20036;-71
2021/07/14 07:00:11;;;;;;;18.30;8.63;;;18.50;99.90;;;;;;5061667;28;20032;-72
2021/07/14 07:02:37;;;;;;;15.18;7.95;;;18.50;99.90;;;;;;5069671;28;20040;-72
2021/07/14 07:05:03;;;;;;;20.70;8.63;;;18.50;99.90;;;;;;5057512;28;20035;-72
2021/07/14 07:07:29;;;;;;;19.50;8.48;;;18.50;99.90;;;;;;5070293;28;20032;-71
2021/07/14 07:09:55;;;;;;;21.00;8.98;;;18.60;99.90;;;;;;5071456;28;20024;-72
2021/07/14 07:12:21;;;;;;;20.38;8.88;;;18.70;99.90;;;;;;5059624;28;20396;-72
2021/07/14 07:14:46;;;;;;;22.00;8.80;;;18.90;99.90;;;;;;5069762;28;20028;-72
2021/07/14 07:17:12;;;;;;;22.95;10.25;;;19.00;99.90;;;;;;5069218;28;20031;-72
2021/07/14 07:19:38;;;;;;;22.00;9.45;;;19.00;99.90;;;;;;5074715;28;20052;-72
2021/07/14 07:22:04;;;;;;;24.05;9.95;;;19.00;99.90;;;;;;5059333;28;20036;-72
2021/07/14 07:24:30;;;;;;;20.42;9.00;;;19.00;99.90;;;;;;5072052;28;20028;-72
2021/07/14 07:26:56;;;;;;;22.05;9.30;;;19.00;99.90;;;;;;5070687;28;20032;-72
2021/07/14 07:29:22;;;;;;;20.70;9.20;;;19.10;99.90;;;;;;5072272;28;20428;-72
2021/07/14 07:31:47;;;;;;;22.15;9.00;;;19.20;99.90;;;;;;5059105;28;20032;-72
2021/07/14 07:34:15;;;;;;;16.65;8.55;;;19.30;99.90;;;;;;5077375;28;20416;-71
2021/07/14 07:36:40;;;;;;;25.98;9.40;;;19.30;99.90;;;;;;5057042;28;20040;-71
2021/07/14 07:39:07;;;;;;;15.52;7.78;;;19.30;99.90;;;;;;5077873;28;20040;-71
2021/07/14 07:41:33;;;;;;;18.08;7.63;;;19.40;99.90;;;;;;5078390;28;20123;-72
2021/07/14 07:43:59;;;;;;;19.80;8.75;;;19.40;99.90;;;;;;5073374;28;20040;-72
2021/07/14 07:46:24;;;;;;;13.65;7.35;;;19.50;99.90;;;;;;5075545;28;20024;-71
2021/07/14 07:48:50;;;;;;;15.40;6.55;;;19.50;99.90;;;;;;5074349;28;20386;-71
2021/07/14 07:51:16;;;;;;;14.65;6.45;;;19.70;99.90;;;;;;5073828;28;20131;-71
2021/07/14 07:53:42;;;;;;;13.35;6.95;;;19.80;99.90;;;;;;5074331;28;20050;-72
2021/07/14 07:56:07;;;;;;;15.73;6.63;;;19.70;99.90;;;;;;5061608;28;20396;-72
2021/07/14 07:58:33;;;;;;;14.32;6.75;;;19.70;99.90;;;;;;5077396;28;20029;-73
2021/07/14 08:01:00;;;;;;;13.77;6.65;;;19.60;99.90;;;;;;5061540;28;20499;-72
2021/07/14 08:03:25;;;;;;;18.90;7.00;;;19.50;99.90;;;;;;5073464;28;20032;-72
2021/07/14 08:05:51;;;;;;;19.75;7.22;;;19.60;99.90;;;;;;5059493;28;20108;-72
2021/07/14 08:08:18;;;;;;;20.83;7.63;;;19.50;99.90;;;;;;5063686;28;20063;-71
2021/07/14 08:10:44;;;;;;;24.15;7.82;;;19.50;99.90;;;;;;5054140;28;20028;-72
2021/07/14 08:13:09;;;;;;;17.50;7.50;;;19.50;99.90;;;;;;5074548;28;20111;-71
2021/07/14 08:15:36;;;;;;;13.50;6.60;;;19.30;99.90;;;;;;5059720;28;20108;-72
2021/07/14 08:18:02;;;;;;;15.35;7.10;;;19.30;99.90;;;;;;5060736;28;20157;-72
2021/07/14 08:20:28;;;;;;;16.90;6.93;;;19.30;99.90;;;;;;5073143;28;20396;-71
2021/07/14 08:22:54;;;;;;;13.35;6.90;;;19.40;99.90;;;;;;5062354;28;20036;-72
2021/07/14 08:25:20;;;;;;;17.23;7.35;;;19.30;99.90;;;;;;5062349;28;20028;-72
2021/07/14 08:27:46;;;;;;;16.00;6.85;;;19.30;99.90;;;;;;5057898;28;20036;-72
2021/07/14 08:30:13;;;;;;;17.70;7.45;;;19.40;99.90;;;;;;5059483;28;20039;-72
2021/07/14 08:32:39;;;;;;;13.95;6.03;;;19.30;99.90;;;;;;5061113;28;20106;-71
2021/07/14 08:35:06;;;;;;;17.73;7.50;;;19.30;99.90;;;;;;5073671;28;20476;-72
2021/07/14 08:37:31;;;;;;;17.02;7.25;;;19.30;99.90;;;;;;5059218;28;20037;-72
2021/07/14 08:39:57;;;;;;;15.75;7.18;;;19.30;99.90;;;;;;5058886;28;20083;-72
2021/07/14 08:42:25;;;;;;;16.55;7.35;;;19.30;99.90;;;;;;5061306;28;20044;-72
2021/07/14 08:44:52;;;;;;;16.45;8.10;;;19.30;99.90;;;;;;5059910;28;20028;-72
2021/07/14 08:47:18;;;;;;;13.70;6.30;;;19.30;99.90;;;;;;5060884;28;20028;-72
2021/07/14 08:49:46;;;;;;;18.45;6.55;;;19.30;99.90;;;;;;5074424;28;20074;-72
2021/07/14 08:52:13;;;;;;;16.95;6.20;;;19.30;99.90;;;;;;5056579;28;20141;-72
2021/07/14 08:54:43;;;;;;;12.88;5.63;;;19.20;99.90;;;;;;5075423;28;20131;-72
2021/07/14 08:57:16;;;;;;;10.60;5.82;;;19.20;99.90;;;;;;5073297;28;20796;-72
2021/07/14 08:59:43;;;;;;;16.45;5.95;;;19.30;99.90;;;;;;5069506;28;20144;-72
2021/07/14 09:02:08;;;;;;;9.48;4.93;;;19.20;99.90;;;;;;5072085;28;20115;-72
2021/07/14 09:04:35;;;;;;;16.23;5.82;;;19.20;99.90;;;;;;5059319;28;20206;-71
2021/07/14 09:07:01;;;;;;;9.88;4.78;;;19.30;99.90;;;;;;5060603;28;20039;-71
2021/07/14 09:09:26;;;;;;;9.77;5.13;;;19.30;99.90;;;;;;5063661;28;20040;-72
2021/07/14 09:11:56;;;;;;;12.00;4.68;;;19.30;99.90;;;;;;5054838;28;20032;-74
2021/07/14 09:14:32;;;;;;;9.95;4.63;;;19.40;99.90;;;;;;5055422;28;20040;-71
2021/07/14 09:17:24;;;;;;;8.20;4.38;;;19.50;99.90;;;;;;5068936;28;20043;-72
2021/07/14 09:20:23;;;;;;;9.65;4.03;;;19.50;99.90;;;;;;5053672;28;20032;-72
2021/07/14 09:23:21;;;;;;;10.95;4.00;;;19.50;99.90;;;;;;5009097;28;20048;-71
2021/07/14 09:25:53;;;;;;;7.50;3.53;;;19.50;99.90;;;;;;5050997;28;20179;-72
2021/07/14 09:28:21;;;;;;;9.85;3.90;;;19.50;99.90;;;;;;5049212;28;20067;-72
2021/07/14 09:30:56;;;;;;;6.88;3.38;;;19.50;99.90;;;;;;5052810;28;20028;-72
2021/07/14 09:33:22;;;;;;;5.68;3.00;;;19.60;99.90;;;;;;5066956;28;20028;-73
2021/07/14 09:35:52;;;;;;;7.78;3.60;;;19.60;99.90;;;;;;5049904;28;20040;-72
2021/07/14 09:38:20;;;;;;;5.97;3.17;;;19.60;99.90;;;;;;5069351;28;20111;-72
2021/07/14 09:41:00;;;;;;;6.72;2.90;;;19.60;99.90;;;;;;5065647;28;20033;-72
2021/07/14 09:43:27;;;;;;;8.35;3.25;;;19.60;99.90;;;;;;5049819;28;20551;-72
2021/07/14 09:45:54;;;;;;;9.15;3.28;;;19.60;99.90;;;;;;5062695;28;20104;-73
2021/07/14 09:48:30;;;;;;;7.97;3.30;;;19.70;99.90;;;;;;5069129;28;20039;-71
2021/07/14 09:51:03;;;;;;;10.35;4.20;;;19.80;99.90;;;;;;5052273;28;20516;-72
2021/07/14 09:53:31;;;;;;;8.95;3.60;;;19.80;99.90;;;;;;5069073;28;20110;-71
2021/07/14 09:56:09;;;;;;;9.40;3.78;;;19.80;99.90;;;;;;5064738;28;20036;-71
2021/07/14 09:58:35;;;;;;;7.65;4.32;;;19.90;99.90;;;;;;5054559;28;20514;-72
2021/07/14 10:01:06;;;;;;;8.98;3.85;;;20.00;99.90;;;;;;5070630;28;20040;-72
2021/07/14 10:03:34;;;;;;;8.88;4.32;;;20.00;99.90;;;;;;5069840;28;20040;-72
2021/07/14 10:06:11;;;;;;;10.80;4.38;;;20.00;99.90;;;;;;5070231;28;20036;-72
2021/07/14 10:08:48;;;;;;;9.40;4.55;;;19.80;99.90;;;;;;5073573;28;20044;-72
2021/07/14 10:11:26;;;;;;;9.73;5.03;;;19.80;99.90;;;;;;5056130;28;20706;-72
2021/07/14 10:13:56;;;;;;;8.18;4.65;;;19.90;99.90;;;;;;5077099;28;20420;-72
2021/07/14 10:16:23;;;;;;;9.18;5.22;;;20.00;99.90;;;;;;5081058;28;20043;-72
2021/07/14 10:19:07;;;;;;;13.48;5.68;;;20.00;99.90;;;;;;5078779;28;20028;-72
2021/07/14 10:21:55;;;;;;;16.02;6.07;;;20.10;99.90;;;;;;5081087;28;20036;-72
2021/07/14 10:24:21;;;;;;;10.00;5.18;;;20.10;99.90;;;;;;5059337;28;20033;-73
2021/07/14 10:26:48;;;;;;;12.40;4.47;;;20.10;99.90;;;;;;5063201;28;20634;-72
2021/07/14 10:29:20;;;;;;;10.95;5.38;;;20.00;99.90;;;;;;5059952;28;20032;-72
2021/07/14 10:31:48;;;;;;;10.85;5.05;;;20.10;99.90;;;;;;5082687;28;20135;-72
2021/07/14 10:34:17;;;;;;;11.27;5.18;;;20.10;99.90;;;;;;5083018;28;20874;-75
2021/07/14 10:36:44;;;;;;;11.48;5.10;;;20.20;99.90;;;;;;5079600;28;20554;-71
2021/07/14 10:39:13;;;;;;;11.93;4.68;;;20.10;99.90;;;;;;5083955;28;20047;-71
2021/07/14 10:41:40;;;;;;;11.65;4.60;;;20.20;99.90;;;;;;5059210;28;20075;-72
2021/07/14 10:44:07;;;;;;;12.27;4.90;;;20.30;99.90;;;;;;5056705;28;20080;-72
2021/07/14 10:46:35;;;;;;;7.95;4.18;;;20.30;99.90;;;;;;5079957;28;20500;-73
2021/07/14 10:49:04;;;;;;;10.40;4.68;;;20.20;99.90;;;;;;5063212;28;20036;-72
2021/07/14 10:51:31;;;;;;;7.88;4.47;;;20.30;99.90;;;;;;5059971;28;20028;-72
2021/07/14 10:54:06;;;;;;;12.50;4.57;;;20.30;99.90;;;;;;5062808;28;20025;-72
2021/07/14 10:56:52;;;;;;;7.50;4.15;;;20.30;99.90;;;;;;5059533;28;20499;-72
2021/07/14 10:59:21;;;;;;;12.20;5.03;;;20.30;99.90;;;;;;5066507;28;20051;-73
2021/07/14 11:01:50;;;;;;;9.40;4.97;;;20.40;99.90;;;;;;5068604;28;20036;-72
2021/07/14 11:04:27;;;;;;;8.73;4.93;;;20.40;99.90;;;;;;5072362;28;20036;-72
2021/07/14 11:07:07;;;;;;;10.25;4.15;;;20.40;99.90;;;;;;5055969;28;20038;-71
2021/07/14 11:09:35;;;;;;;11.07;4.80;;;20.40;99.90;;;;;;5067070;28;20101;-72
2021/07/14 11:12:03;;;;;;;8.82;4.45;;;20.30;99.90;;;;;;5071351;28;20032;-72
2021/07/14 11:14:38;;;;;;;7.80;4.47;;;20.40;99.90;;;;;;5056786;28;20048;-71
2021/07/14 11:17:08;;;;;;;7.28;3.67;;;20.40;99.90;;;;;;5068959;28;20369;-72
2021/07/14 11:19:44;;;;;;;;;;;20.40;99.90;;;;;;5070270;28;20025;-72
2021/07/14 11:22:10;;;;;;;10.68;4.32;;;20.40;99.90;;;;;;5053429;28;19932;-72
2021/07/14 11:24:46;;;;;;;9.13;4.72;;;20.40;99.90;;;;;;5054563;28;20443;-72
2021/07/14 11:27:27;;;;;;;11.00;4.07;;;20.60;99.90;;;;;;5060230;28;20048;-72
2021/07/14 11:30:04;;;;;;;7.68;3.92;;;20.80;99.90;;;;;;5070261;28;20413;-71
2021/07/14 11:32:37;;;;;;;9.43;4.47;;;20.90;99.90;;;;;;5057235;28;20045;-71
2021/07/14 11:35:09;;;;;;;8.57;4.30;;;21.00;99.90;;;;;;5069486;28;20090;-72
2021/07/14 11:37:37;;;;;;;7.38;3.95;;;21.10;99.90;;;;;;5073364;28;20056;-72
2021/07/14 11:40:17;;;;;;;8.10;3.53;;;21.20;99.90;;;;;;5050614;28;20043;-72
2021/07/14 11:43:09;;;;;;;7.53;3.70;;;21.40;99.90;;;;;;5070370;28;20045;-71
2021/07/14 11:45:35;;;;;;;7.03;4.22;;;21.50;99.90;;;;;;5054510;28;20032;-72
2021/07/14 11:48:03;;;;;;;8.75;4.28;;;21.60;99.90;;;;;;5072013;28;20024;-72
2021/07/14 11:50:49;;;;;;;6.65;3.85;;;21.80;99.90;;;;;;5059568;28;20669;-72
2021/07/14 11:53:39;;;;;;;6.55;3.22;;;22.00;99.90;;;;;;5055660;28;20032;-72
2021/07/14 11:56:08;;;;;;;;;;;22.10;99.90;;;;;;5072205;28;20094;-72
2021/07/14 11:58:42;;;;;;;5.28;3.00;;;22.20;99.90;;;;;;5051379;28;19923;-72
2021/07/14 12:01:17;;;;;;;5.20;2.78;;;22.20;99.90;;;;;;5055846;28;20115;-71
2021/07/14 12:04:02;;;;;;;6.53;2.80;;;22.40;99.90;;;;;;5063085;28;20032;-71
2021/07/14 12:06:37;;;;;;;6.00;3.20;;;22.40;99.90;;;;;;5067471;28;20550;-72
2021/07/14 12:09:17;;;;;;;5.10;2.75;;;22.40;99.90;;;;;;5064262;28;20033;-72
2021/07/14 12:11:43;;;;;;;6.43;3.25;;;22.70;99.90;;;;;;5060217;28;20059;-72
2021/07/14 12:14:21;;;;;;;6.25;3.92;;;22.80;99.90;;;;;;5074322;28;20087;-75
2021/07/14 12:16:49;;;;;;;4.93;3.00;;;22.80;99.90;;;;;;5068222;28;20129;-71
2021/07/14 12:19:30;;;;;;;7.60;3.97;;;23.00;99.90;;;;;;5052573;28;20033;-72
2021/07/14 12:21:57;;;;;;;8.02;3.13;;;23.10;99.90;;;;;;5072885;28;20101;-72
2021/07/14 12:24:35;;;;;;;8.18;3.38;;;23.20;99.90;;;;;;5054691;28;20025;-71
2021/07/14 12:27:05;;;;;;;4.63;2.90;;;23.10;99.90;;;;;;5052560;28;20063;-72
2021/07/14 12:29:31;;;;;;;4.38;2.63;;;23.00;99.90;;;;;;5055311;28;20036;-72
2021/07/14 12:31:58;;;;;;;3.80;2.47;;;23.00;99.90;;;;;;5054051;28;20047;-73
2021/07/14 12:34:29;;;;;;;5.82;3.58;;;22.80;99.90;;;;;;5044316;28;20081;-71
2021/07/14 12:36:56;;;;;;;10.27;3.17;;;22.70;99.90;;;;;;5058044;28;20025;-71
2021/07/14 12:39:26;;;;;;;7.63;3.55;;;22.50;99.90;;;;;;5075325;28;20031;-72
2021/07/14 12:41:54;;;;;;;5.78;3.60;;;22.20;99.90;;;;;;5051433;28;20139;-72
2021/07/14 12:44:20;;;;;;;5.15;3.17;;;22.20;99.90;;;;;;5069247;28;20515;-72
2021/07/14 12:46:46;;;;;;;5.93;3.42;;;22.10;99.90;;;;;;5068470;28;20111;-72
2021/07/14 12:49:14;;;;;;;6.63;2.92;;;22.30;99.90;;;;;;5048352;28;20401;-72
2021/07/14 12:51:58;;;;;;;4.90;3.20;;;22.50;99.90;;;;;;5070449;28;20133;-74
2021/07/14 12:54:23;;;;;;;5.32;2.72;;;22.80;99.90;;;;;;5070363;28;20024;-72
2021/07/14 12:56:49;;;;;;;7.70;2.85;;;23.00;99.90;;;;;;5056950;28;20044;-72